createdAt,value
2022-12-17T00:00:44.690Z,18.40
2022-12-17T00:03:30.885Z,18.17
2022-12-17T00:06:16.672Z,17.15
2022-12-17T00:09:03.841Z,18.70
2022-12-17T00:11:49.850Z,17.45
2022-12-17T00:14:35.917Z,17.52
2022-12-17T00:17:21.800Z,17.83
2022-12-17T00:20:08.016Z,16.17
2022-12-17T00:22:53.855Z,17.45
2022-12-17T00:25:43.474Z,18.20
2022-12-17T00:28:31.019Z,15.90
2022-12-17T00:31:16.900Z,16.15
2022-12-17T00:34:02.821Z,15.45
2022-12-17T00:36:49.118Z,16.33
2022-12-17T00:39:35.087Z,15.57
2022-12-17T00:42:22.429Z,16.00
2022-12-17T00:45:08.620Z,15.40
2022-12-17T00:47:55.804Z,14.73
2022-12-17T00:50:42.878Z,15.18
2022-12-17T00:53:29.527Z,16.05
2022-12-17T00:56:15.675Z,15.38
2022-12-17T00:59:03.071Z,14.93
2022-12-17T01:01:49.422Z,15.13
2022-12-17T01:04:35.706Z,15.20
2022-12-17T01:07:21.794Z,15.57
2022-12-17T01:10:08.011Z,14.68
2022-12-17T01:12:54.127Z,14.88
2022-12-17T01:15:43.815Z,13.60
2022-12-17T01:18:35.504Z,13.85
2022-12-17T01:21:21.466Z,14.52
2022-12-17T01:24:07.523Z,14.77
2022-12-17T01:26:53.521Z,14.20
2022-12-17T01:29:42.120Z,13.73
2022-12-17T01:32:29.638Z,12.90
2022-12-17T01:35:15.467Z,12.90
2022-12-17T01:38:01.580Z,12.98
2022-12-17T01:40:47.660Z,13.60
2022-12-17T01:43:33.943Z,13.18
2022-12-17T01:46:20.317Z,12.38
2022-12-17T01:49:07.856Z,12.77
2022-12-17T01:51:53.916Z,12.82
2022-12-17T01:54:39.928Z,16.25
2022-12-17T01:57:26.542Z,14.23
2022-12-17T02:00:15.735Z,14.23
2022-12-17T02:03:02.200Z,14.82
2022-12-17T02:05:57.925Z,13.82
2022-12-17T02:08:48.263Z,14.35
2022-12-17T02:11:37.814Z,13.77
2022-12-17T02:14:30.178Z,13.13
2022-12-17T02:17:18.681Z,12.93
2022-12-17T02:20:08.924Z,12.85
2022-12-17T02:23:04.246Z,13.00
2022-12-17T02:25:52.296Z,13.35
2022-12-17T02:28:40.342Z,12.70
2022-12-17T02:31:27.646Z,12.80
2022-12-17T02:34:14.233Z,12.00
2022-12-17T02:37:00.345Z,12.07
2022-12-17T02:39:46.317Z,11.80
2022-12-17T02:42:32.478Z,12.55
2022-12-17T02:45:19.761Z,12.50
2022-12-17T02:48:05.963Z,12.23
2022-12-17T02:50:51.875Z,12.40
2022-12-17T02:53:39.247Z,11.70
2022-12-17T02:56:33.494Z,11.43
2022-12-17T02:59:19.507Z,12.75
2022-12-17T03:02:03.071Z,11.65
2022-12-17T03:04:48.959Z,12.18
2022-12-17T03:07:35.212Z,11.93
2022-12-17T03:10:20.979Z,12.20
2022-12-17T03:13:06.990Z,10.95
2022-12-17T03:15:52.802Z,11.85
2022-12-17T03:18:39.579Z,11.52
2022-12-17T03:21:25.694Z,10.38
2022-12-17T03:24:11.825Z,12.43
2022-12-17T03:27:06.069Z,11.23
2022-12-17T03:29:52.080Z,11.68
2022-12-17T03:32:38.083Z,10.95
2022-12-17T03:35:25.543Z,10.48
2022-12-17T03:38:11.663Z,10.45
2022-12-17T03:40:57.717Z,10.60
2022-12-17T03:43:43.839Z,10.85
2022-12-17T03:46:30.078Z,11.13
2022-12-17T03:49:15.999Z,11.27
2022-12-17T03:52:02.761Z,10.57
2022-12-17T03:54:48.945Z,11.43
2022-12-17T03:57:34.843Z,9.57
2022-12-17T04:00:20.887Z,10.50
2022-12-17T04:03:07.010Z,10.82
2022-12-17T04:05:52.947Z,10.65
2022-12-17T04:08:54.471Z,10.15
2022-12-17T04:11:40.132Z,11.05
2022-12-17T04:14:25.703Z,11.85
2022-12-17T04:17:11.930Z,9.77
2022-12-17T04:19:58.074Z,10.45
2022-12-17T04:22:43.499Z,11.18
2022-12-17T04:25:30.286Z,10.35
2022-12-17T04:28:15.590Z,10.93
2022-12-17T04:31:00.932Z,11.15
2022-12-17T04:33:46.355Z,11.13
2022-12-17T04:36:31.918Z,10.25
2022-12-17T04:39:17.647Z,10.70
2022-12-17T04:42:04.650Z,10.95
2022-12-17T04:44:50.219Z,11.18
2022-12-17T04:47:41.528Z,10.73
2022-12-17T04:50:27.511Z,10.20
2022-12-17T04:53:19.343Z,10.90
2022-12-17T04:56:05.188Z,10.45
2022-12-17T04:58:52.794Z,9.80
2022-12-17T05:01:39.099Z,10.02
2022-12-17T05:04:25.314Z,10.35
2022-12-17T05:07:11.338Z,10.00
2022-12-17T05:09:57.184Z,9.70
2022-12-17T05:12:42.950Z,9.55
2022-12-17T05:15:30.645Z,9.80
2022-12-17T05:18:23.839Z,9.88
2022-12-17T05:21:09.758Z,10.27
2022-12-17T05:23:55.672Z,9.38
2022-12-17T05:26:42.749Z,9.88
2022-12-17T05:29:28.901Z,9.75
2022-12-17T05:32:16.394Z,10.20
2022-12-17T05:35:02.185Z,9.25
2022-12-17T05:37:48.335Z,9.90
2022-12-17T05:40:34.260Z,10.98
2022-12-17T05:43:21.667Z,10.30
2022-12-17T05:46:07.381Z,10.07
2022-12-17T05:48:54.976Z,10.00
2022-12-17T05:51:41.138Z,10.32
2022-12-17T05:54:27.590Z,10.38
2022-12-17T05:57:13.490Z,10.70
2022-12-17T05:59:59.913Z,10.02
2022-12-17T06:02:45.869Z,9.68
2022-12-17T06:05:33.097Z,9.57
2022-12-17T06:08:23.153Z,10.73
2022-12-17T06:11:09.159Z,10.80
2022-12-17T06:13:54.947Z,10.25
2022-12-17T06:16:41.372Z,9.82
2022-12-17T06:19:27.478Z,11.25
2022-12-17T06:22:14.621Z,9.82
2022-12-17T06:25:00.581Z,9.90
2022-12-17T06:27:46.712Z,9.85
2022-12-17T06:30:32.693Z,10.13
2022-12-17T06:33:25.788Z,9.88
2022-12-17T06:36:15.430Z,11.48
2022-12-17T06:39:06.575Z,9.93
2022-12-17T06:41:52.598Z,9.85
2022-12-17T06:44:38.436Z,9.98
2022-12-17T06:47:24.249Z,9.93
2022-12-17T06:50:10.447Z,10.48
2022-12-17T06:52:56.235Z,10.65
2022-12-17T06:55:43.173Z,10.23
2022-12-17T06:58:29.165Z,10.25
2022-12-17T07:01:15.504Z,10.10
2022-12-17T07:04:01.881Z,10.15
2022-12-17T07:06:47.855Z,10.30
2022-12-17T07:09:33.995Z,10.95
2022-12-17T07:12:20.698Z,10.15
2022-12-17T07:15:07.044Z,10.25
2022-12-17T07:17:49.338Z,10.23
2022-12-17T07:20:34.885Z,10.32
2022-12-17T07:23:20.961Z,9.57
2022-12-17T07:26:07.094Z,10.30
2022-12-17T07:28:54.624Z,10.50
2022-12-17T07:31:40.700Z,9.75
2022-12-17T07:34:26.955Z,10.05
2022-12-17T07:37:16.127Z,9.90
2022-12-17T07:40:06.214Z,10.07
2022-12-17T07:42:52.677Z,10.30
2022-12-17T07:45:39.842Z,10.35
2022-12-17T07:48:25.874Z,9.57
2022-12-17T07:51:12.208Z,10.32
2022-12-17T07:53:58.018Z,12.07
2022-12-17T07:56:43.813Z,11.63
2022-12-17T07:59:32.115Z,11.02
2022-12-17T08:02:19.113Z,11.10
2022-12-17T08:05:04.998Z,10.65
2022-12-17T08:07:51.254Z,11.20
2022-12-17T08:10:37.133Z,10.63
2022-12-17T08:13:24.190Z,10.73
2022-12-17T08:16:12.185Z,10.95
2022-12-17T08:18:59.312Z,11.07
2022-12-17T08:21:45.446Z,10.50
2022-12-17T08:24:31.402Z,10.45
2022-12-17T08:27:19.680Z,11.05
2022-12-17T08:30:05.522Z,11.25
2022-12-17T08:32:51.668Z,10.90
2022-12-17T08:35:38.386Z,10.65
2022-12-17T08:38:25.250Z,11.27
2022-12-17T08:41:11.173Z,11.10
2022-12-17T08:43:57.224Z,11.02
2022-12-17T08:46:43.429Z,10.75
2022-12-17T08:49:29.307Z,10.75
2022-12-17T08:52:16.557Z,10.32
2022-12-17T08:55:02.856Z,10.90
2022-12-17T08:57:49.050Z,10.90
2022-12-17T09:00:36.818Z,10.73
2022-12-17T09:03:23.884Z,10.77
2022-12-17T09:06:11.649Z,10.00
2022-12-17T09:09:15.678Z,10.00
2022-12-17T09:12:17.036Z,9.50
2022-12-17T09:17:50.849Z,11.02
2022-12-17T09:20:51.655Z,10.68
2022-12-17T09:23:38.906Z,10.57
2022-12-17T09:26:26.134Z,10.45
2022-12-17T09:29:12.406Z,10.65
2022-12-17T09:31:58.400Z,10.27
2022-12-17T09:34:44.269Z,10.15
2022-12-17T09:37:30.346Z,10.70
2022-12-17T09:40:16.553Z,10.30
2022-12-17T09:43:12.192Z,10.27
2022-12-17T09:46:05.651Z,10.23
2022-12-17T09:48:58.873Z,9.57
2022-12-17T09:51:46.857Z,10.23
2022-12-17T09:54:39.594Z,9.93
2022-12-17T09:57:31.637Z,11.10
2022-12-17T10:00:18.789Z,9.68
2022-12-17T10:03:05.206Z,9.73
2022-12-17T10:05:51.553Z,9.93
2022-12-17T10:08:40.528Z,10.27
2022-12-17T10:11:36.824Z,10.35
2022-12-17T10:14:30.216Z,9.77
2022-12-17T10:17:17.791Z,10.10
2022-12-17T10:20:07.707Z,10.55
2022-12-17T10:23:02.170Z,10.45
2022-12-17T10:25:48.398Z,10.13
2022-12-17T10:28:37.044Z,10.75
2022-12-17T10:31:27.941Z,9.82
2022-12-17T10:34:16.343Z,10.20
2022-12-17T10:37:04.760Z,10.18
2022-12-17T10:39:50.837Z,10.05
2022-12-17T10:42:42.144Z,10.32
2022-12-17T10:45:39.571Z,9.63
2022-12-17T10:48:40.442Z,9.82
2022-12-17T10:51:38.207Z,10.27
2022-12-17T10:54:37.167Z,9.88
2022-12-17T10:57:25.933Z,10.98
2022-12-17T11:00:12.231Z,10.23
2022-12-17T11:02:58.359Z,10.63
2022-12-17T11:05:47.191Z,10.10
2022-12-17T11:08:35.617Z,10.73
2022-12-17T11:11:25.231Z,10.98
2022-12-17T11:14:11.585Z,10.00
2022-12-17T11:17:02.297Z,10.80
2022-12-17T11:19:54.688Z,10.95
2022-12-17T11:22:50.891Z,10.60
2022-12-17T11:25:51.180Z,10.90
2022-12-17T11:28:41.457Z,10.18
2022-12-17T11:32:08.054Z,10.77
2022-12-17T11:35:10.954Z,9.95
2022-12-17T11:38:02.053Z,10.38
2022-12-17T11:40:55.158Z,10.43
2022-12-17T11:43:45.727Z,11.18
2022-12-17T11:46:45.980Z,11.00
2022-12-17T11:49:40.889Z,10.13
2022-12-17T11:52:32.879Z,9.65
2022-12-17T11:55:28.068Z,10.50
2022-12-17T11:58:18.995Z,11.00
2022-12-17T12:01:13.541Z,10.85
2022-12-17T12:04:09.834Z,10.13
2022-12-17T12:07:08.049Z,10.35
2022-12-17T12:09:58.965Z,11.13
2022-12-17T12:13:00.084Z,10.77
2022-12-17T12:16:02.310Z,10.93
2022-12-17T12:18:57.673Z,9.98
2022-12-17T12:21:57.895Z,10.57
2022-12-17T12:25:02.916Z,9.70
2022-12-17T12:27:56.566Z,10.20
2022-12-17T12:30:45.959Z,10.77
2022-12-17T12:33:42.742Z,10.68
2022-12-17T12:36:30.733Z,10.98
2022-12-17T12:39:17.980Z,10.25
2022-12-17T12:42:10.549Z,10.65
2022-12-17T12:45:03.041Z,10.48
2022-12-17T12:47:59.051Z,10.43
2022-12-17T12:50:51.036Z,10.50
2022-12-17T12:53:37.278Z,10.77
2022-12-17T12:56:43.120Z,10.57
2022-12-17T12:59:31.092Z,10.13
2022-12-17T13:02:16.544Z,9.95
2022-12-17T13:05:10.712Z,10.57
2022-12-17T13:07:38.811Z,10.07
2022-12-17T13:10:27.483Z,10.93
2022-12-17T13:12:57.768Z,10.43
2022-12-17T13:15:33.248Z,10.18
2022-12-17T13:18:16.247Z,10.32
2022-12-17T13:20:45.099Z,9.57
2022-12-17T13:23:28.130Z,10.00
2022-12-17T13:26:17.496Z,9.63
2022-12-17T13:29:02.532Z,9.50
2022-12-17T13:31:42.573Z,9.13
2022-12-17T13:36:49.931Z,10.05
2022-12-17T13:39:33.979Z,9.02
2022-12-17T13:42:02.595Z,9.35
2022-12-17T13:44:37.255Z,8.93
2022-12-17T13:47:06.371Z,9.23
2022-12-17T13:49:34.518Z,9.40
2022-12-17T13:52:11.170Z,8.75
2022-12-17T13:54:39.999Z,9.27
2022-12-17T13:57:09.866Z,9.77
2022-12-17T13:59:39.669Z,9.35
2022-12-17T14:02:08.124Z,9.48
2022-12-17T14:04:36.308Z,8.80
2022-12-17T14:07:06.887Z,9.20
2022-12-17T14:09:37.960Z,8.98
2022-12-17T14:12:25.752Z,8.65
2022-12-17T14:14:58.655Z,8.85
2022-12-17T14:17:28.974Z,8.52
2022-12-17T14:20:04.410Z,9.25
2022-12-17T14:22:36.560Z,9.48
2022-12-17T14:25:14.303Z,8.40
2022-12-17T14:27:50.602Z,9.13
2022-12-17T14:30:25.898Z,8.52
2022-12-17T14:32:53.971Z,8.90
2022-12-17T14:35:27.988Z,8.25
2022-12-17T14:37:56.397Z,8.63
2022-12-17T14:40:26.912Z,8.73
2022-12-17T14:43:00.340Z,9.15
2022-12-17T14:45:30.670Z,9.07
2022-12-17T14:48:00.727Z,8.35
2022-12-17T14:53:00.218Z,8.23
2022-12-17T14:55:34.660Z,8.82
2022-12-17T14:58:24.418Z,8.88
2022-12-17T15:00:57.150Z,8.55
2022-12-17T15:03:28.574Z,8.40
2022-12-17T15:06:00.164Z,8.30
2022-12-17T15:08:32.421Z,8.45
2022-12-17T15:11:00.550Z,9.18
2022-12-17T15:13:28.641Z,8.13
2022-12-17T15:15:58.155Z,7.75
2022-12-17T15:18:26.270Z,7.90
2022-12-17T15:20:54.410Z,8.35
2022-12-17T15:23:24.662Z,8.75
2022-12-17T15:25:54.421Z,8.60
2022-12-17T15:28:23.317Z,8.57
2022-12-17T15:30:51.656Z,7.57
2022-12-17T15:33:21.188Z,7.75
2022-12-17T15:35:49.371Z,8.02
2022-12-17T15:38:17.455Z,7.78
2022-12-17T15:40:45.689Z,8.50
2022-12-17T15:43:13.472Z,8.25
2022-12-17T15:45:44.694Z,8.07
2022-12-17T15:48:14.013Z,8.23
2022-12-17T15:50:43.541Z,8.10
2022-12-17T15:53:11.929Z,8.35
2022-12-17T15:55:40.818Z,7.68
2022-12-17T15:58:11.377Z,8.23
2022-12-17T16:00:39.583Z,8.07
2022-12-17T16:03:07.825Z,8.10
2022-12-17T16:05:36.045Z,7.70
2022-12-17T16:08:05.689Z,8.00
2022-12-17T16:10:33.822Z,8.32
2022-12-17T16:13:01.949Z,8.60
2022-12-17T16:15:30.369Z,7.32
2022-12-17T16:17:58.875Z,8.15
2022-12-17T16:20:27.244Z,8.80
2022-12-17T16:22:55.421Z,7.55
2022-12-17T16:25:24.890Z,8.70
2022-12-17T16:27:53.002Z,8.27
2022-12-17T16:30:21.099Z,8.02
2022-12-17T16:32:49.289Z,8.30
2022-12-17T16:35:17.479Z,8.40
2022-12-17T16:37:45.595Z,8.07
2022-12-17T16:40:13.911Z,7.78
2022-12-17T16:42:43.402Z,8.23
2022-12-17T16:45:11.950Z,8.80
2022-12-17T16:47:40.058Z,8.25
2022-12-17T16:50:08.485Z,8.48
2022-12-17T16:52:36.613Z,8.38
2022-12-17T16:55:04.937Z,8.48
2022-12-17T16:57:33.596Z,8.23
2022-12-17T17:00:04.438Z,8.27
2022-12-17T17:02:32.791Z,8.45
2022-12-17T17:05:01.058Z,8.57
2022-12-17T17:07:29.221Z,8.10
2022-12-17T17:09:57.707Z,8.82
2022-12-17T17:12:27.021Z,8.45
2022-12-17T17:14:55.118Z,9.13
2022-12-17T17:17:55.392Z,9.80
2022-12-17T17:20:13.770Z,9.18
2022-12-17T17:22:42.695Z,9.30
2022-12-17T17:25:10.899Z,9.95
2022-12-17T17:27:39.038Z,9.70
2022-12-17T17:30:08.255Z,10.60
2022-12-17T17:32:37.832Z,10.50
2022-12-17T17:35:06.772Z,9.90
2022-12-17T17:37:35.466Z,10.18
2022-12-17T17:40:04.010Z,10.77
2022-12-17T17:42:32.138Z,10.30
2022-12-17T17:45:01.010Z,9.60
2022-12-17T17:47:30.181Z,10.40
2022-12-17T17:49:59.632Z,11.17
2022-12-17T17:52:27.755Z,10.18
2022-12-17T17:54:55.859Z,11.02
2022-12-17T17:57:23.979Z,11.25
2022-12-17T17:59:52.134Z,10.65
2022-12-17T18:02:20.333Z,11.00
2022-12-17T18:04:48.574Z,10.52
2022-12-17T18:07:26.735Z,11.00
2022-12-17T18:09:55.667Z,11.13
2022-12-17T18:12:41.588Z,12.27
2022-12-17T18:15:15.235Z,14.43
2022-12-17T18:17:44.362Z,13.23
2022-12-17T18:20:13.315Z,12.18
2022-12-17T18:22:42.950Z,13.57
2022-12-17T18:25:11.025Z,12.63
2022-12-17T18:27:39.348Z,13.38
2022-12-17T18:30:08.310Z,13.48
2022-12-17T18:32:36.694Z,13.05
2022-12-17T18:35:05.032Z,13.27
2022-12-17T18:37:36.324Z,14.13
2022-12-17T18:40:07.995Z,13.15
2022-12-17T18:42:54.267Z,13.20
2022-12-17T18:45:23.234Z,13.65
2022-12-17T18:47:53.446Z,12.70
2022-12-17T18:52:53.897Z,13.13
2022-12-17T18:55:31.025Z,12.63
2022-12-17T18:58:01.713Z,26.40
2022-12-17T19:00:30.758Z,22.70
2022-12-17T19:02:58.970Z,21.00
2022-12-17T19:05:27.722Z,20.02
2022-12-17T19:07:55.902Z,19.20
2022-12-17T19:10:26.259Z,18.73
2022-12-17T19:12:54.810Z,19.20
2022-12-17T19:15:23.824Z,19.05
2022-12-17T19:17:51.988Z,19.25
2022-12-17T19:20:20.738Z,19.05
2022-12-17T19:22:48.869Z,17.65
2022-12-17T19:25:17.047Z,17.45
2022-12-17T19:27:46.796Z,17.70
2022-12-17T19:30:14.948Z,16.95
2022-12-17T19:32:43.017Z,17.80
2022-12-17T19:35:11.367Z,16.45
2022-12-17T19:37:39.442Z,17.73
2022-12-17T19:40:08.701Z,16.80
2022-12-17T19:42:37.618Z,16.17
2022-12-17T19:45:08.621Z,15.83
2022-12-17T19:47:37.327Z,15.93
2022-12-17T19:50:06.421Z,15.82
2022-12-17T19:52:34.514Z,16.50
2022-12-17T19:55:03.046Z,16.38
2022-12-17T19:57:31.769Z,15.65
2022-12-17T19:59:59.890Z,14.95
2022-12-17T20:02:32.848Z,15.57
2022-12-17T20:05:02.149Z,16.13
2022-12-17T20:07:30.313Z,15.40
2022-12-17T20:09:58.448Z,15.25
2022-12-17T20:12:26.557Z,17.08
2022-12-17T20:14:54.657Z,16.92
2022-12-17T20:17:22.806Z,15.57
2022-12-17T20:19:53.859Z,15.88
2022-12-17T20:22:23.198Z,14.73
2022-12-17T20:24:53.227Z,15.77
2022-12-17T20:27:21.367Z,15.73
2022-12-17T20:29:49.509Z,15.27
2022-12-17T20:32:19.487Z,15.95
2022-12-17T20:37:17.008Z,15.05
2022-12-17T20:39:45.125Z,14.85
2022-12-17T20:42:13.307Z,15.13
2022-12-17T20:44:41.494Z,15.23
2022-12-17T20:47:13.567Z,14.60
2022-12-17T20:49:46.072Z,14.40
2022-12-17T20:52:16.533Z,15.02
2022-12-17T20:54:47.121Z,14.43
2022-12-17T20:57:15.745Z,13.82
2022-12-17T20:59:44.524Z,14.23
2022-12-17T21:02:15.039Z,14.15
2022-12-17T21:04:43.580Z,13.98
2022-12-17T21:07:12.117Z,13.55
2022-12-17T21:09:40.430Z,13.40
2022-12-17T21:12:12.367Z,13.75
2022-12-17T21:14:41.079Z,13.82
2022-12-17T21:17:10.095Z,13.18
2022-12-17T21:19:38.862Z,13.07
2022-12-17T21:22:07.524Z,13.35
2022-12-17T21:24:38.062Z,12.27
2022-12-17T21:27:11.130Z,14.02
2022-12-17T21:29:44.175Z,13.57
2022-12-17T21:32:12.292Z,13.02
2022-12-17T21:34:40.922Z,13.85
2022-12-17T21:37:11.148Z,13.73
2022-12-17T21:42:24.661Z,13.20
2022-12-17T21:44:54.151Z,13.75
2022-12-17T21:47:22.520Z,13.13
2022-12-17T21:49:50.641Z,17.30
2022-12-17T21:52:18.726Z,14.80
2022-12-17T21:54:47.537Z,13.35
2022-12-17T21:57:15.822Z,14.38
2022-12-17T21:59:44.513Z,14.85
2022-12-17T22:02:14.158Z,15.77
2022-12-17T22:04:42.484Z,14.48
2022-12-17T22:07:18.838Z,15.27
2022-12-17T22:10:19.726Z,14.30
2022-12-17T22:12:53.741Z,14.48
2022-12-17T22:15:21.873Z,14.90
2022-12-17T22:17:56.293Z,14.30
2022-12-17T22:20:25.374Z,14.52
2022-12-17T22:22:53.441Z,14.75
2022-12-17T22:25:21.772Z,14.63
2022-12-17T22:27:50.504Z,14.27
2022-12-17T22:30:37.344Z,14.73
2022-12-17T22:33:16.981Z,14.30
2022-12-17T22:37:07.865Z,14.38
2022-12-17T22:41:37.477Z,15.13
2022-12-17T22:44:49.372Z,14.52
2022-12-17T22:44:51.803Z,14.30
2022-12-17T22:47:21.861Z,14.13
2022-12-17T22:49:51.420Z,14.93
2022-12-17T22:54:48.945Z,13.75
2022-12-17T22:57:35.780Z,13.13
2022-12-17T23:00:10.018Z,14.05
2022-12-17T23:02:38.182Z,13.25
2022-12-17T23:05:08.277Z,14.05
2022-12-17T23:07:36.399Z,14.02
2022-12-17T23:10:04.814Z,13.10
2022-12-17T23:12:50.862Z,13.52
2022-12-17T23:15:19.729Z,13.38
2022-12-17T23:17:48.112Z,13.20
2022-12-17T23:20:17.842Z,13.55
2022-12-17T23:22:45.940Z,12.88
2022-12-17T23:25:14.463Z,13.10
2022-12-17T23:27:42.565Z,13.07
2022-12-17T23:30:11.984Z,13.77
2022-12-17T23:32:40.153Z,12.20
2022-12-17T23:35:09.131Z,12.57
2022-12-17T23:37:40.125Z,12.85
2022-12-17T23:40:09.873Z,12.80
2022-12-17T23:42:38.425Z,12.98
2022-12-17T23:45:07.374Z,13.43
2022-12-17T23:47:35.668Z,12.70
2022-12-17T23:50:03.771Z,11.65
2022-12-17T23:52:31.911Z,12.48
2022-12-17T23:55:01.397Z,13.20
2022-12-17T23:57:29.940Z,12.98
2022-12-17T23:59:58.057Z,13.60
